Terminal Aerodrome Forecast
Issued by NWS Wakefield, VA

Home | Current Version | Previous Version | Text Only | Print | Product List | Glossary On
Versions: 1 2 3 4 5 6 7 8 9 10 11 12 13 14 15 16 17 18 19 20 21 22 23 24 25 26 27 28 29 30 31 32 33 34 35 36 37 38 39 40 41
871
FTUS41 KAKQ 240553 RRA
TAFRIC
TAF
KRIC 240553Z 2406/2506 34012G20KT P6SM -RA OVC012
      TEMPO 2406/2410 3SM -RA BR OVC006
     FM241200 32010G16KT P6SM -SHRA OVC015
     FM241600 32012G18KT P6SM BKN045
     FM242100 31010KT P6SM SCT050
     FM250200 30006KT P6SM SKC=

USA.gov is the U.S. government's official web portal to all federal, state and local government web resources and services.